Terminal Aerodrome Forecast
Issued by NWS Quad Cities IA IL

Home | Current Version | Previous Version | Text Only | Print | Product List | Glossary On
Versions: 1 2 3 4 5 6 7 8 9 10 11 12 13 14
441
FTUS43 KDVN 181120
TAFMLI
TAF
KMLI 181120Z 1812/1912 19007KT P6SM SKC
     FM181500 20012KT P6SM SKC
     FM181800 20014G21KT P6SM SCT250
     FM190000 19006KT P6SM SCT250=

USA.gov is the U.S. government's official web portal to all federal, state and local government web resources and services.